sensor_id;sensor_type;location;lat;lon;timestamp;pressure;altitude;pressure_sealevel;temperature;humidity
4735;BME280;2381;50.676;12.612;2022-09-09T11:10:32;97051.72;;;21.13;100.00
4735;BME280;2381;50.676;12.612;2022-09-09T11:13:47;97058.03;;;20.97;100.00
4735;BME280;2381;50.676;12.612;2022-09-09T11:16:57;97051.44;;;21.10;100.00
4735;BME280;2381;50.676;12.612;2022-09-09T11:20:05;97047.97;;;21.14;100.00
4735;BME280;2381;50.676;12.612;2022-09-09T11:23:12;97048.13;;;21.29;100.00
4735;BME280;2381;50.676;12.612;2022-09-09T11:26:22;97047.72;;;21.47;100.00
4735;BME280;2381;50.676;12.612;2022-09-09T11:30:00;97059.47;;;21.41;100.00
4735;BME280;2381;50.676;12.612;2022-09-09T11:33:31;97061.53;;;21.34;100.00
4735;BME280;2381;50.676;12.612;2022-09-09T11:36:54;97053.84;;;21.11;100.00
4735;BME280;2381;50.676;12.612;2022-09-09T11:40:09;97062.25;;;20.93;100.00
4735;BME280;2381;50.676;12.612;2022-09-09T11:43:24;97065.56;;;21.05;100.00
4735;BME280;2381;50.676;12.612;2022-09-09T11:46:33;97057.75;;;21.30;100.00
4735;BME280;2381;50.676;12.612;2022-09-09T11:49:40;97057.84;;;21.40;96.84
4735;BME280;2381;50.676;12.612;2022-09-09T11:52:45;97068.25;;;21.31;96.82
4735;BME280;2381;50.676;12.612;2022-09-09T11:56:04;97062.66;;;21.38;95.47
4735;BME280;2381;50.676;12.612;2022-09-09T11:59:20;97070.63;;;21.28;94.01
4735;BME280;2381;50.676;12.612;2022-09-09T12:02:25;97066.38;;;21.01;94.72
4735;BME280;2381;50.676;12.612;2022-09-09T12:05:36;97062.25;;;20.93;100.00
4735;BME280;2381;50.676;12.612;2022-09-09T12:08:43;97051.16;;;21.06;100.00
4735;BME280;2381;50.676;12.612;2022-09-09T12:11:46;97050.75;;;21.24;100.00
4735;BME280;2381;50.676;12.612;2022-09-09T12:14:59;97045.50;;;21.39;94.13
4735;BME280;2381;50.676;12.612;2022-09-09T12:18:07;97043.69;;;21.44;97.20
4735;BME280;2381;50.676;12.612;2022-09-09T12:21:25;97040.69;;;21.41;97.27
4735;BME280;2381;50.676;12.612;2022-09-09T12:24:39;97034.50;;;21.35;92.61
4735;BME280;2381;50.676;12.612;2022-09-09T12:27:53;97024.69;;;21.51;98.10
4735;BME280;2381;50.676;12.612;2022-09-09T12:31:05;97035.59;;;21.39;96.27
4735;BME280;2381;50.676;12.612;2022-09-09T12:34:16;97030.06;;;21.19;92.66
4735;BME280;2381;50.676;12.612;2022-09-09T12:37:26;97028.47;;;21.18;93.52
4735;BME280;2381;50.676;12.612;2022-09-09T12:40:33;97028.66;;;21.07;93.52
4735;BME280;2381;50.676;12.612;2022-09-09T12:43:37;97027.00;;;21.01;92.99
4735;BME280;2381;50.676;12.612;2022-09-09T12:46:43;97028.91;;;21.06;90.09
4735;BME280;2381;50.676;12.612;2022-09-09T12:49:48;97024.00;;;21.29;90.68
4735;BME280;2381;50.676;12.612;2022-09-09T12:52:54;97015.56;;;21.47;89.31
4735;BME280;2381;50.676;12.612;2022-09-09T12:56:00;97015.72;;;21.67;89.11
4735;BME280;2381;50.676;12.612;2022-09-09T12:59:04;97018.13;;;21.68;86.90
4735;BME280;2381;50.676;12.612;2022-09-09T13:02:18;97035.94;;;21.53;87.54
4735;BME280;2381;50.676;12.612;2022-09-09T13:05:24;97026.97;;;21.32;85.44
4735;BME280;2381;50.676;12.612;2022-09-09T13:08:27;97018.78;;;21.13;91.11
4735;BME280;2381;50.676;12.612;2022-09-09T13:11:34;97027.00;;;21.01;89.22
4735;BME280;2381;50.676;12.612;2022-09-09T13:14:38;97030.13;;;20.93;89.51
4735;BME280;2381;50.676;12.612;2022-09-09T13:17:42;97030.19;;;21.34;89.08
4735;BME280;2381;50.676;12.612;2022-09-09T13:20:46;97033.06;;;21.23;89.43
4735;BME280;2381;50.676;12.612;2022-09-09T13:23:51;97032.34;;;21.01;86.76
4735;BME280;2381;50.676;12.612;2022-09-09T13:26:55;97031.06;;;20.82;85.43
4735;BME280;2381;50.676;12.612;2022-09-09T13:29:59;97027.50;;;20.98;87.34
4735;BME280;2381;50.676;12.612;2022-09-09T13:33:20;97030.38;;;21.23;86.10
4735;BME280;2381;50.676;12.612;2022-09-09T13:36:28;97025.78;;;21.18;89.39
4735;BME280;2381;50.676;12.612;2022-09-09T13:39:33;97020.56;;;21.33;91.15
4735;BME280;2381;50.676;12.612;2022-09-09T13:42:40;97010.69;;;21.44;97.44
4735;BME280;2381;50.676;12.612;2022-09-09T13:45:52;97006.63;;;21.31;93.25
4735;BME280;2381;50.676;12.612;2022-09-09T13:49:01;97006.34;;;21.33;92.48
4735;BME280;2381;50.676;12.612;2022-09-09T13:52:08;97004.13;;;21.25;89.08
4735;BME280;2381;50.676;12.612;2022-09-09T13:55:12;96990.66;;;21.15;84.59
4735;BME280;2381;50.676;12.612;2022-09-09T13:58:16;97003.44;;;21.03;82.36
4735;BME280;2381;50.676;12.612;2022-09-09T14:01:20;97004.47;;;20.97;81.45
4735;BME280;2381;50.676;12.612;2022-09-09T14:04:31;97001.81;;;21.02;83.70
4735;BME280;2381;50.676;12.612;2022-09-09T14:07:34;97005.63;;;21.06;84.13
4735;BME280;2381;50.676;12.612;2022-09-09T14:10:39;97006.66;;;21.05;79.25
4735;BME280;2381;50.676;12.612;2022-09-09T14:13:42;97014.06;;;20.93;76.86
4735;BME280;2381;50.676;12.612;2022-09-09T14:16:44;97011.75;;;20.75;83.46
4735;BME280;2381;50.676;12.612;2022-09-09T14:19:48;97005.69;;;20.58;84.29
4735;BME280;2381;50.676;12.612;2022-09-09T14:22:52;96993.50;;;20.46;86.81
4735;BME280;2381;50.676;12.612;2022-09-09T14:25:55;96995.78;;;20.32;84.29
4735;BME280;2381;50.676;12.612;2022-09-09T14:28:57;96990.44;;;20.32;81.65
4735;BME280;2381;50.676;12.612;2022-09-09T14:32:02;96973.47;;;20.22;85.83
4735;BME280;2381;50.676;12.612;2022-09-09T14:35:12;96973.38;;;20.12;79.38
4735;BME280;2381;50.676;12.612;2022-09-09T14:38:15;96983.09;;;20.01;82.61
4735;BME280;2381;50.676;12.612;2022-09-09T14:41:19;96988.97;;;19.98;81.71
4735;BME280;2381;50.676;12.612;2022-09-09T14:44:24;96996.63;;;19.90;85.03
4735;BME280;2381;50.676;12.612;2022-09-09T14:47:27;97016.72;;;19.76;81.56
4735;BME280;2381;50.676;12.612;2022-09-09T14:50:32;97039.44;;;19.73;83.89
4735;BME280;2381;50.676;12.612;2022-09-09T14:53:36;97062.53;;;19.63;84.70
4735;BME280;2381;50.676;12.612;2022-09-09T14:56:39;97072.84;;;19.54;85.54
4735;BME280;2381;50.676;12.612;2022-09-09T14:59:42;97059.22;;;19.39;90.36
4735;BME280;2381;50.676;12.612;2022-09-09T15:02:45;97046.28;;;19.31;92.00
4735;BME280;2381;50.676;12.612;2022-09-09T15:05:49;97045.09;;;19.22;96.31
4735;BME280;2381;50.676;12.612;2022-09-09T15:08:53;97039.03;;;19.27;97.88
4735;BME280;2381;50.676;12.612;2022-09-09T15:11:59;97051.97;;;19.18;100.00
4735;BME280;2381;50.676;12.612;2022-09-09T15:15:04;97053.88;;;19.06;100.00
4735;BME280;2381;50.676;12.612;2022-09-09T15:18:07;97057.94;;;19.09;100.00
4735;BME280;2381;50.676;12.612;2022-09-09T15:21:11;97045.81;;;19.01;100.00
4735;BME280;2381;50.676;12.612;2022-09-09T15:24:14;97044.66;;;18.97;100.00
4735;BME280;2381;50.676;12.612;2022-09-09T15:27:18;97044.66;;;18.97;100.00
4735;BME280;2381;50.676;12.612;2022-09-09T15:30:21;97038.91;;;19.05;100.00
4735;BME280;2381;50.676;12.612;2022-09-09T15:33:24;97022.66;;;19.07;100.00
4735;BME280;2381;50.676;12.612;2022-09-09T15:36:30;97008.44;;;19.01;100.00
4735;BME280;2381;50.676;12.612;2022-09-09T15:39:33;96998.22;;;18.98;100.00
4735;BME280;2381;50.676;12.612;2022-09-09T15:42:39;96987.78;;;18.97;100.00
4735;BME280;2381;50.676;12.612;2022-09-09T15:45:42;96980.03;;;18.79;100.00
4735;BME280;2381;50.676;12.612;2022-09-09T15:48:45;96995.94;;;18.74;100.00
4735;BME280;2381;50.676;12.612;2022-09-09T15:51:54;96991.19;;;18.76;100.00
4735;BME280;2381;50.676;12.612;2022-09-09T15:54:58;96997.25;;;18.71;100.00
4735;BME280;2381;50.676;12.612;2022-09-09T15:58:02;96996.91;;;18.51;100.00
4735;BME280;2381;50.676;12.612;2022-09-09T16:01:05;97000.63;;;18.50;100.00
4735;BME280;2381;50.676;12.612;2022-09-09T16:04:09;96992.53;;;18.45;100.00
4735;BME280;2381;50.676;12.612;2022-09-09T16:07:13;97004.81;;;18.46;100.00
4735;BME280;2381;50.676;12.612;2022-09-09T16:10:16;96999.28;;;18.37;100.00
4735;BME280;2381;50.676;12.612;2022-09-09T16:13:19;97004.53;;;18.32;100.00
4735;BME280;2381;50.676;12.612;2022-09-09T16:16:24;97004.75;;;18.30;100.00
4735;BME280;2381;50.676;12.612;2022-09-09T16:19:27;96986.31;;;18.29;100.00
4735;BME280;2381;50.676;12.612;2022-09-09T16:22:31;96999.44;;;18.19;100.00
4735;BME280;2381;50.676;12.612;2022-09-09T16:25:34;97009.50;;;18.28;100.00
4735;BME280;2381;50.676;12.612;2022-09-09T16:28:37;97009.31;;;18.30;100.00
4735;BME280;2381;50.676;12.612;2022-09-09T16:31:41;97012.53;;;18.32;100.00
4735;BME280;2381;50.676;12.612;2022-09-09T16:34:44;97011.00;;;18.24;100.00
4735;BME280;2381;50.676;12.612;2022-09-09T16:37:48;97017.16;;;18.25;100.00
4735;BME280;2381;50.676;12.612;2022-09-09T16:40:51;97022.00;;;18.00;100.00
4735;BME280;2381;50.676;12.612;2022-09-09T16:43:54;97027.22;;;17.95;100.00
4735;BME280;2381;50.676;12.612;2022-09-09T16:46:58;97023.50;;;17.96;100.00
4735;BME280;2381;50.676;12.612;2022-09-09T16:50:01;97010.09;;;17.91;100.00
4735;BME280;2381;50.676;12.612;2022-09-09T16:53:06;97009.06;;;17.92;100.00
4735;BME280;2381;50.676;12.612;2022-09-09T16:56:12;97015.19;;;17.92;100.00
4735;BME280;2381;50.676;12.612;2022-09-09T16:59:16;97010.00;;;17.86;100.00
4735;BME280;2381;50.676;12.612;2022-09-09T17:02:19;97013.25;;;17.76;100.00
4735;BME280;2381;50.676;12.612;2022-09-09T17:05:22;97011.31;;;17.72;100.00
4735;BME280;2381;50.676;12.612;2022-09-09T17:08:28;97007.13;;;17.76;100.00
4735;BME280;2381;50.676;12.612;2022-09-09T17:11:32;97010.13;;;17.68;100.00
4735;BME280;2381;50.676;12.612;2022-09-09T17:14:35;97017.56;;;17.66;100.00
4735;BME280;2381;50.676;12.612;2022-09-09T17:17:38;97010.88;;;17.52;100.00
4735;BME280;2381;50.676;12.612;2022-09-09T17:20:41;97012.50;;;17.53;100.00
4735;BME280;2381;50.676;12.612;2022-09-09T17:23:49;97003.81;;;17.46;100.00
4735;BME280;2381;50.676;12.612;2022-09-09T17:26:52;97008.31;;;17.34;100.00
4735;BME280;2381;50.676;12.612;2022-09-09T17:29:55;97015.47;;;17.22;100.00
4735;BME280;2381;50.676;12.612;2022-09-09T17:32:58;97009.03;;;17.18;100.00
4735;BME280;2381;50.676;12.612;2022-09-09T17:36:06;97016.06;;;17.12;100.00
4735;BME280;2381;50.676;12.612;2022-09-09T17:39:11;97010.84;;;17.06;100.00
4735;BME280;2381;50.676;12.612;2022-09-09T17:42:14;97011.22;;;16.98;100.00
4735;BME280;2381;50.676;12.612;2022-09-09T17:45:17;97013.47;;;16.83;100.00
4735;BME280;2381;50.676;12.612;2022-09-09T17:48:20;97008.88;;;16.90;100.00
4735;BME280;2381;50.676;12.612;2022-09-09T17:51:24;97002.16;;;16.87;100.00
4735;BME280;2381;50.676;12.612;2022-09-09T17:54:30;97007.44;;;16.64;100.00
4735;BME280;2381;50.676;12.612;2022-09-09T17:57:33;96996.56;;;16.66;100.00
4735;BME280;2381;50.676;12.612;2022-09-09T18:00:36;96998.53;;;16.59;100.00
4735;BME280;2381;50.676;12.612;2022-09-09T18:03:40;97007.81;;;16.68;100.00
4735;BME280;2381;50.676;12.612;2022-09-09T18:06:45;97009.13;;;16.36;100.00
4735;BME280;2381;50.676;12.612;2022-09-09T18:09:50;97009.44;;;16.10;100.00
4735;BME280;2381;50.676;12.612;2022-09-09T18:12:53;97020.50;;;16.07;100.00
4735;BME280;2381;50.676;12.612;2022-09-09T18:15:57;97016.09;;;16.01;100.00
4735;BME280;2381;50.676;12.612;2022-09-09T18:19:01;97018.81;;;16.12;100.00
4735;BME280;2381;50.676;12.612;2022-09-09T18:22:05;97014.84;;;16.03;100.00
4735;BME280;2381;50.676;12.612;2022-09-09T18:25:09;97015.03;;;16.02;100.00
4735;BME280;2381;50.676;12.612;2022-09-09T18:28:12;97021.13;;;15.91;100.00
4735;BME280;2381;50.676;12.612;2022-09-09T18:31:17;97022.25;;;15.65;100.00
4735;BME280;2381;50.676;12.612;2022-09-09T18:34:22;97017.66;;;15.72;100.00
4735;BME280;2381;50.676;12.612;2022-09-09T18:37:26;97016.34;;;15.81;100.00
4735;BME280;2381;50.676;12.612;2022-09-09T18:40:31;97020.63;;;15.64;100.00
4735;BME280;2381;50.676;12.612;2022-09-09T18:43:34;97009.03;;;15.59;100.00
4735;BME280;2381;50.676;12.612;2022-09-09T18:46:37;97008.84;;;15.61;100.00
4735;BME280;2381;50.676;12.612;2022-09-09T18:49:40;97007.25;;;15.71;100.00
4735;BME280;2381;50.676;12.612;2022-09-09T18:52:43;97017.97;;;15.82;100.00
4735;BME280;2381;50.676;12.612;2022-09-09T18:55:56;97028.97;;;15.86;100.00
4735;BME280;2381;50.676;12.612;2022-09-09T18:59:01;97026.56;;;15.42;100.00
4735;BME280;2381;50.676;12.612;2022-09-09T19:02:04;97029.53;;;15.52;100.00
4735;BME280;2381;50.676;12.612;2022-09-09T19:05:07;97032.34;;;15.57;100.00
4735;BME280;2381;50.676;12.612;2022-09-09T19:08:10;97045.47;;;15.52;100.00
4735;BME280;2381;50.676;12.612;2022-09-09T19:11:16;97041.34;;;15.56;100.00
4735;BME280;2381;50.676;12.612;2022-09-09T19:14:20;97045.63;;;15.57;100.00
4735;BME280;2381;50.676;12.612;2022-09-09T19:17:23;97048.34;;;15.26;100.00
4735;BME280;2381;50.676;12.612;2022-09-09T19:20:27;97039.84;;;15.18;100.00
4735;BME280;2381;50.676;12.612;2022-09-09T19:23:29;97052.81;;;15.32;100.00
4735;BME280;2381;50.676;12.612;2022-09-09T19:26:36;97060.59;;;15.27;100.00
4735;BME280;2381;50.676;12.612;2022-09-09T19:29:41;97061.19;;;15.29;100.00
4735;BME280;2381;50.676;12.612;2022-09-09T19:32:45;97064.72;;;15.23;100.00
4735;BME280;2381;50.676;12.612;2022-09-09T19:35:56;97055.41;;;15.14;100.00
4735;BME280;2381;50.676;12.612;2022-09-09T19:38:59;97064.47;;;15.25;100.00
4735;BME280;2381;50.676;12.612;2022-09-09T19:42:05;97065.97;;;15.21;100.00
4735;BME280;2381;50.676;12.612;2022-09-09T19:45:08;97089.59;;;15.22;100.00
4735;BME280;2381;50.676;12.612;2022-09-09T19:48:11;97088.34;;;15.31;100.00
4735;BME280;2381;50.676;12.612;2022-09-09T19:51:16;97104.88;;;15.27;100.00
4735;BME280;2381;50.676;12.612;2022-09-09T19:54:19;97115.41;;;15.15;100.00
4735;BME280;2381;50.676;12.612;2022-09-09T19:57:24;97112.50;;;15.17;100.00
4735;BME280;2381;50.676;12.612;2022-09-09T20:00:30;97102.22;;;15.33;100.00
4735;BME280;2381;50.676;12.612;2022-09-09T20:03:35;97107.66;;;15.38;100.00
4735;BME280;2381;50.676;12.612;2022-09-09T20:06:40;97100.03;;;15.48;100.00
4735;BME280;2381;50.676;12.612;2022-09-09T20:09:43;97093.69;;;15.49;100.00
4735;BME280;2381;50.676;12.612;2022-09-09T20:12:47;97098.47;;;15.41;100.00
4735;BME280;2381;50.676;12.612;2022-09-09T20:15:56;97109.09;;;15.41;100.00
4735;BME280;2381;50.676;12.612;2022-09-09T20:19:03;97106.06;;;15.37;100.00
4735;BME280;2381;50.676;12.612;2022-09-09T20:22:06;97115.03;;;15.36;100.00
4735;BME280;2381;50.676;12.612;2022-09-09T20:25:09;97110.31;;;15.38;100.00
4735;BME280;2381;50.676;12.612;2022-09-09T20:28:13;97122.13;;;15.42;100.00
4735;BME280;2381;50.676;12.612;2022-09-09T20:31:19;97125.00;;;15.41;100.00
4735;BME280;2381;50.676;12.612;2022-09-09T20:34:23;97120.50;;;15.41;100.00
4735;BME280;2381;50.676;12.612;2022-09-09T20:37:27;97136.09;;;15.31;100.00
4735;BME280;2381;50.676;12.612;2022-09-09T20:40:34;97135.75;;;15.21;100.00
4735;BME280;2381;50.676;12.612;2022-09-09T20:43:39;97154.84;;;15.36;100.00
4735;BME280;2381;50.676;12.612;2022-09-09T20:46:44;97159.56;;;15.34;100.00
4735;BME280;2381;50.676;12.612;2022-09-09T20:49:49;97161.41;;;15.34;100.00
4735;BME280;2381;50.676;12.612;2022-09-09T20:52:52;97168.34;;;15.28;100.00
4735;BME280;2381;50.676;12.612;2022-09-09T20:55:58;97178.09;;;15.41;100.00
4735;BME280;2381;50.676;12.612;2022-09-09T20:59:06;97187.28;;;15.38;100.00
4735;BME280;2381;50.676;12.612;2022-09-09T21:02:10;97195.59;;;15.48;100.00
4735;BME280;2381;50.676;12.612;2022-09-09T21:05:14;97191.63;;;15.33;100.00
4735;BME280;2381;50.676;12.612;2022-09-09T21:08:22;97204.94;;;15.20;100.00
4735;BME280;2381;50.676;12.612;2022-09-09T21:11:26;97210.59;;;15.36;100.00
4735;BME280;2381;50.676;12.612;2022-09-09T21:14:30;97200.63;;;15.25;100.00
4735;BME280;2381;50.676;12.612;2022-09-09T21:17:33;97202.31;;;15.20;100.00
4735;BME280;2381;50.676;12.612;2022-09-09T21:20:36;97191.69;;;15.20;100.00
4735;BME280;2381;50.676;12.612;2022-09-09T21:23:39;97195.13;;;15.20;100.00
4735;BME280;2381;50.676;12.612;2022-09-09T21:26:42;97192.13;;;15.10;100.00
4735;BME280;2381;50.676;12.612;2022-09-09T21:29:46;97192.19;;;15.04;100.00
4735;BME280;2381;50.676;12.612;2022-09-09T21:32:50;97200.34;;;15.02;100.00
4735;BME280;2381;50.676;12.612;2022-09-09T21:35:58;97190.69;;;14.83;100.00
4735;BME280;2381;50.676;12.612;2022-09-09T21:39:03;97208.63;;;14.81;100.00
4735;BME280;2381;50.676;12.612;2022-09-09T21:42:07;97207.00;;;14.80;100.00
4735;BME280;2381;50.676;12.612;2022-09-09T21:45:12;97214.22;;;14.67;100.00
4735;BME280;2381;50.676;12.612;2022-09-09T21:48:16;97216.69;;;14.62;100.00
4735;BME280;2381;50.676;12.612;2022-09-09T21:51:20;97232.34;;;14.70;100.00
4735;BME280;2381;50.676;12.612;2022-09-09T21:54:24;97238.50;;;14.57;100.00
4735;BME280;2381;50.676;12.612;2022-09-09T21:57:29;97242.59;;;14.60;100.00
4735;BME280;2381;50.676;12.612;2022-09-09T22:00:34;97231.53;;;14.69;100.00
4735;BME280;2381;50.676;12.612;2022-09-09T22:03:37;97223.59;;;14.63;100.00
4735;BME280;2381;50.676;12.612;2022-09-09T22:06:41;97201.63;;;14.49;100.00
4735;BME280;2381;50.676;12.612;2022-09-09T22:09:44;97211.03;;;14.45;100.00
4735;BME280;2381;50.676;12.612;2022-09-09T22:12:47;97205.97;;;14.37;100.00
4735;BME280;2381;50.676;12.612;2022-09-09T22:15:52;97206.84;;;14.18;100.00
4735;BME280;2381;50.676;12.612;2022-09-09T22:18:59;97227.03;;;14.00;100.00
4735;BME280;2381;50.676;12.612;2022-09-09T22:22:03;97242.50;;;13.96;100.00
4735;BME280;2381;50.676;12.612;2022-09-09T22:25:06;97256.34;;;13.98;100.00
4735;BME280;2381;50.676;12.612;2022-09-09T22:28:13;97256.16;;;13.93;100.00
4735;BME280;2381;50.676;12.612;2022-09-09T22:31:17;97252.50;;;13.88;100.00
4735;BME280;2381;50.676;12.612;2022-09-09T22:34:21;97228.84;;;13.99;100.00
4735;BME280;2381;50.676;12.612;2022-09-09T22:37:24;97227.22;;;13.98;100.00
4735;BME280;2381;50.676;12.612;2022-09-09T22:40:27;97213.75;;;14.06;100.00
4735;BME280;2381;50.676;12.612;2022-09-09T22:43:31;97204.84;;;13.94;100.00
4735;BME280;2381;50.676;12.612;2022-09-09T22:46:35;97207.66;;;13.99;100.00
4735;BME280;2381;50.676;12.612;2022-09-09T22:49:39;97190.56;;;14.02;100.00
4735;BME280;2381;50.676;12.612;2022-09-09T22:52:42;97188.94;;;14.01;100.00
4735;BME280;2381;50.676;12.612;2022-09-09T22:55:54;97181.63;;;13.83;100.00
4735;BME280;2381;50.676;12.612;2022-09-09T22:58:59;97190.59;;;13.82;100.00
4735;BME280;2381;50.676;12.612;2022-09-09T23:02:03;97192.63;;;13.93;100.00
4735;BME280;2381;50.676;12.612;2022-09-09T23:05:06;97182.44;;;13.90;100.00
4735;BME280;2381;50.676;12.612;2022-09-09T23:08:10;97180.63;;;13.78;100.00
4735;BME280;2381;50.676;12.612;2022-09-09T23:11:13;97184.88;;;13.85;100.00
4735;BME280;2381;50.676;12.612;2022-09-09T23:14:16;97180.63;;;13.78;100.00
4735;BME280;2381;50.676;12.612;2022-09-09T23:17:20;97173.09;;;13.81;100.00
4735;BME280;2381;50.676;12.612;2022-09-09T23:20:23;97180.22;;;13.81;100.00
4735;BME280;2381;50.676;12.612;2022-09-09T23:23:27;97183.06;;;13.79;100.00
4735;BME280;2381;50.676;12.612;2022-09-09T23:26:30;97176.16;;;13.72;100.00
4735;BME280;2381;50.676;12.612;2022-09-09T23:29:33;97173.72;;;13.70;100.00
4735;BME280;2381;50.676;12.612;2022-09-09T23:32:37;97169.63;;;13.74;100.00
4735;BME280;2381;50.676;12.612;2022-09-09T23:35:40;97174.75;;;13.56;100.00
4735;BME280;2381;50.676;12.612;2022-09-09T23:38:44;97180.84;;;13.44;100.00
4735;BME280;2381;50.676;12.612;2022-09-09T23:41:48;97186.53;;;13.47;100.00
4735;BME280;2381;50.676;12.612;2022-09-09T23:44:51;97184.50;;;13.36;100.00
4735;BME280;2381;50.676;12.612;2022-09-09T23:47:55;97190.41;;;13.25;100.00
4735;BME280;2381;50.676;12.612;2022-09-09T23:50:58;97195.91;;;13.30;100.00
4735;BME280;2381;50.676;12.612;2022-09-09T23:54:03;97203.63;;;13.25;100.00
4735;BME280;2381;50.676;12.612;2022-09-09T23:57:06;97209.75;;;13.32;100.00
